sensor_id;sensor_type;location;lat;lon;timestamp;P1;durP1;ratioP1;P2;durP2;ratioP2
32242;SDS011;18731;42.830;24.390;2024-02-04T00:00:05;62.17;;;26.88;;
32242;SDS011;18731;42.830;24.390;2024-02-04T00:02:31;82.32;;;35.30;;
32242;SDS011;18731;42.830;24.390;2024-02-04T00:04:56;70.35;;;31.58;;
32242;SDS011;18731;42.830;24.390;2024-02-04T00:07:22;74.63;;;33.20;;
32242;SDS011;18731;42.830;24.390;2024-02-04T00:09:47;64.80;;;29.08;;
32242;SDS011;18731;42.830;24.390;2024-02-04T00:12:13;54.97;;;27.90;;
32242;SDS011;18731;42.830;24.390;2024-02-04T00:14:38;69.78;;;31.85;;
32242;SDS011;18731;42.830;24.390;2024-02-04T00:17:04;55.75;;;26.35;;
32242;SDS011;18731;42.830;24.390;2024-02-04T00:19:29;60.00;;;26.85;;
32242;SDS011;18731;42.830;24.390;2024-02-04T00:21:55;66.40;;;27.65;;
32242;SDS011;18731;42.830;24.390;2024-02-04T00:24:20;93.28;;;37.90;;
32242;SDS011;18731;42.830;24.390;2024-02-04T00:26:46;62.78;;;28.90;;
32242;SDS011;18731;42.830;24.390;2024-02-04T00:29:12;55.60;;;25.27;;
32242;SDS011;18731;42.830;24.390;2024-02-04T00:31:38;49.72;;;22.85;;
32242;SDS011;18731;42.830;24.390;2024-02-04T00:34:03;59.60;;;27.77;;
32242;SDS011;18731;42.830;24.390;2024-02-04T00:36:30;54.05;;;25.10;;
32242;SDS011;18731;42.830;24.390;2024-02-04T00:38:55;55.60;;;25.75;;
32242;SDS011;18731;42.830;24.390;2024-02-04T00:41:21;46.83;;;22.83;;
32242;SDS011;18731;42.830;24.390;2024-02-04T00:43:47;56.13;;;26.75;;
32242;SDS011;18731;42.830;24.390;2024-02-04T00:46:12;68.53;;;29.08;;
32242;SDS011;18731;42.830;24.390;2024-02-04T00:48:38;51.45;;;24.10;;
32242;SDS011;18731;42.830;24.390;2024-02-04T00:51:06;47.05;;;22.77;;
32242;SDS011;18731;42.830;24.390;2024-02-04T00:53:32;32.75;;;16.25;;
32242;SDS011;18731;42.830;24.390;2024-02-04T00:56:01;50.90;;;19.60;;
32242;SDS011;18731;42.830;24.390;2024-02-04T00:58:27;40.55;;;18.27;;
32242;SDS011;18731;42.830;24.390;2024-02-04T01:00:53;41.40;;;18.25;;
32242;SDS011;18731;42.830;24.390;2024-02-04T01:03:19;39.53;;;17.38;;
32242;SDS011;18731;42.830;24.390;2024-02-04T01:05:44;43.88;;;18.00;;
32242;SDS011;18731;42.830;24.390;2024-02-04T01:08:10;45.67;;;21.27;;
32242;SDS011;18731;42.830;24.390;2024-02-04T01:10:35;43.78;;;18.92;;
32242;SDS011;18731;42.830;24.390;2024-02-04T01:13:01;30.77;;;13.82;;
32242;SDS011;18731;42.830;24.390;2024-02-04T01:15:26;28.20;;;12.70;;
32242;SDS011;18731;42.830;24.390;2024-02-04T01:17:52;35.45;;;16.05;;
32242;SDS011;18731;42.830;24.390;2024-02-04T01:20:17;40.80;;;18.15;;
32242;SDS011;18731;42.830;24.390;2024-02-04T01:22:43;36.60;;;16.40;;
32242;SDS011;18731;42.830;24.390;2024-02-04T01:25:09;35.58;;;16.50;;
32242;SDS011;18731;42.830;24.390;2024-02-04T01:27:34;25.30;;;12.07;;
32242;SDS011;18731;42.830;24.390;2024-02-04T01:30:00;26.48;;;11.75;;
32242;SDS011;18731;42.830;24.390;2024-02-04T01:32:26;23.30;;;11.10;;
32242;SDS011;18731;42.830;24.390;2024-02-04T01:34:51;19.15;;;10.15;;
32242;SDS011;18731;42.830;24.390;2024-02-04T01:37:17;27.33;;;12.50;;
32242;SDS011;18731;42.830;24.390;2024-02-04T01:39:43;22.15;;;10.32;;
32242;SDS011;18731;42.830;24.390;2024-02-04T01:42:08;26.92;;;9.13;;
32242;SDS011;18731;42.830;24.390;2024-02-04T01:44:35;34.20;;;17.00;;
32242;SDS011;18731;42.830;24.390;2024-02-04T01:47:01;35.75;;;17.73;;
32242;SDS011;18731;42.830;24.390;2024-02-04T01:49:27;25.85;;;12.93;;
32242;SDS011;18731;42.830;24.390;2024-02-04T01:51:53;30.73;;;14.68;;
32242;SDS011;18731;42.830;24.390;2024-02-04T01:54:19;29.85;;;14.13;;
32242;SDS011;18731;42.830;24.390;2024-02-04T01:56:46;33.30;;;15.07;;
32242;SDS011;18731;42.830;24.390;2024-02-04T01:59:14;32.47;;;14.20;;
32242;SDS011;18731;42.830;24.390;2024-02-04T02:01:40;32.45;;;14.65;;
32242;SDS011;18731;42.830;24.390;2024-02-04T02:04:08;29.38;;;12.70;;
32242;SDS011;18731;42.830;24.390;2024-02-04T02:06:33;26.70;;;12.18;;
32242;SDS011;18731;42.830;24.390;2024-02-04T02:09:06;24.63;;;11.95;;
32242;SDS011;18731;42.830;24.390;2024-02-04T02:11:55;30.65;;;14.18;;
32242;SDS011;18731;42.830;24.390;2024-02-04T02:14:27;30.70;;;14.00;;
32242;SDS011;18731;42.830;24.390;2024-02-04T02:16:57;32.85;;;14.27;;
32242;SDS011;18731;42.830;24.390;2024-02-04T02:25:13;47.28;;;19.73;;
32242;SDS011;18731;42.830;24.390;2024-02-04T02:27:48;39.45;;;17.08;;
32242;SDS011;18731;42.830;24.390;2024-02-04T02:30:15;35.08;;;15.60;;
32242;SDS011;18731;42.830;24.390;2024-02-04T02:32:42;35.13;;;16.25;;
32242;SDS011;18731;42.830;24.390;2024-02-04T02:35:15;38.85;;;16.67;;
32242;SDS011;18731;42.830;24.390;2024-02-04T02:40:45;24.23;;;10.73;;
32242;SDS011;18731;42.830;24.390;2024-02-04T02:43:14;31.30;;;14.32;;
32242;SDS011;18731;42.830;24.390;2024-02-04T02:45:41;41.60;;;17.30;;
32242;SDS011;18731;42.830;24.390;2024-02-04T02:48:08;37.83;;;14.77;;
32242;SDS011;18731;42.830;24.390;2024-02-04T02:50:38;28.83;;;12.93;;
32242;SDS011;18731;42.830;24.390;2024-02-04T02:53:04;35.75;;;14.32;;
32242;SDS011;18731;42.830;24.390;2024-02-04T02:55:30;29.63;;;13.07;;
32242;SDS011;18731;42.830;24.390;2024-02-04T02:57:55;33.58;;;15.20;;
32242;SDS011;18731;42.830;24.390;2024-02-04T03:00:21;31.77;;;10.52;;
32242;SDS011;18731;42.830;24.390;2024-02-04T03:02:47;28.83;;;13.38;;
32242;SDS011;18731;42.830;24.390;2024-02-04T03:05:12;34.50;;;14.93;;
32242;SDS011;18731;42.830;24.390;2024-02-04T03:07:40;34.92;;;15.95;;
32242;SDS011;18731;42.830;24.390;2024-02-04T03:10:05;39.05;;;17.42;;
32242;SDS011;18731;42.830;24.390;2024-02-04T03:12:31;36.08;;;16.95;;
32242;SDS011;18731;42.830;24.390;2024-02-04T03:14:57;35.53;;;15.10;;
32242;SDS011;18731;42.830;24.390;2024-02-04T03:17:22;35.35;;;15.73;;
32242;SDS011;18731;42.830;24.390;2024-02-04T03:19:49;41.85;;;19.58;;
32242;SDS011;18731;42.830;24.390;2024-02-04T03:22:17;38.08;;;17.80;;
32242;SDS011;18731;42.830;24.390;2024-02-04T03:24:43;42.92;;;18.45;;
32242;SDS011;18731;42.830;24.390;2024-02-04T03:27:08;45.15;;;20.55;;
32242;SDS011;18731;42.830;24.390;2024-02-04T03:29:34;46.53;;;20.33;;
32242;SDS011;18731;42.830;24.390;2024-02-04T03:31:59;32.22;;;15.40;;
32242;SDS011;18731;42.830;24.390;2024-02-04T03:34:25;22.85;;;11.10;;
32242;SDS011;18731;42.830;24.390;2024-02-04T03:36:50;33.88;;;14.43;;
32242;SDS011;18731;42.830;24.390;2024-02-04T03:39:16;32.63;;;14.90;;
32242;SDS011;18731;42.830;24.390;2024-02-04T03:41:41;40.25;;;19.00;;
32242;SDS011;18731;42.830;24.390;2024-02-04T03:44:07;41.65;;;19.90;;
32242;SDS011;18731;42.830;24.390;2024-02-04T03:46:32;32.67;;;15.50;;
32242;SDS011;18731;42.830;24.390;2024-02-04T03:48:58;44.08;;;20.25;;
32242;SDS011;18731;42.830;24.390;2024-02-04T03:51:24;35.10;;;16.60;;
32242;SDS011;18731;42.830;24.390;2024-02-04T03:53:50;33.47;;;16.40;;
32242;SDS011;18731;42.830;24.390;2024-02-04T03:56:16;48.55;;;25.05;;
32242;SDS011;18731;42.830;24.390;2024-02-04T03:58:41;32.35;;;15.48;;
32242;SDS011;18731;42.830;24.390;2024-02-04T04:01:10;34.78;;;17.27;;
32242;SDS011;18731;42.830;24.390;2024-02-04T04:03:38;33.13;;;17.55;;
32242;SDS011;18731;42.830;24.390;2024-02-04T04:06:05;40.53;;;18.13;;
32242;SDS011;18731;42.830;24.390;2024-02-04T04:08:31;50.40;;;22.85;;
32242;SDS011;18731;42.830;24.390;2024-02-04T04:10:56;36.40;;;16.55;;
32242;SDS011;18731;42.830;24.390;2024-02-04T04:13:22;41.22;;;19.25;;
32242;SDS011;18731;42.830;24.390;2024-02-04T04:15:47;36.58;;;17.38;;
32242;SDS011;18731;42.830;24.390;2024-02-04T04:18:13;30.75;;;14.73;;
32242;SDS011;18731;42.830;24.390;2024-02-04T04:20:38;28.80;;;14.20;;
32242;SDS011;18731;42.830;24.390;2024-02-04T04:23:04;25.25;;;13.27;;
32242;SDS011;18731;42.830;24.390;2024-02-04T04:25:30;31.70;;;14.60;;
32242;SDS011;18731;42.830;24.390;2024-02-04T04:27:55;29.40;;;14.07;;
32242;SDS011;18731;42.830;24.390;2024-02-04T04:30:23;31.27;;;15.05;;
32242;SDS011;18731;42.830;24.390;2024-02-04T04:32:49;34.60;;;16.23;;
32242;SDS011;18731;42.830;24.390;2024-02-04T04:35:14;34.20;;;16.45;;
32242;SDS011;18731;42.830;24.390;2024-02-04T04:37:40;32.63;;;16.13;;
32242;SDS011;18731;42.830;24.390;2024-02-04T04:40:05;70.07;;;31.38;;
32242;SDS011;18731;42.830;24.390;2024-02-04T04:42:31;52.65;;;25.35;;
32242;SDS011;18731;42.830;24.390;2024-02-04T04:44:57;65.05;;;30.75;;
32242;SDS011;18731;42.830;24.390;2024-02-04T04:47:22;66.60;;;31.48;;
32242;SDS011;18731;42.830;24.390;2024-02-04T04:49:48;75.28;;;35.28;;
32242;SDS011;18731;42.830;24.390;2024-02-04T04:52:13;71.95;;;34.75;;
32242;SDS011;18731;42.830;24.390;2024-02-04T04:54:39;64.70;;;30.13;;
32242;SDS011;18731;42.830;24.390;2024-02-04T04:57:05;49.15;;;23.90;;
32242;SDS011;18731;42.830;24.390;2024-02-04T04:59:30;50.30;;;24.08;;
32242;SDS011;18731;42.830;24.390;2024-02-04T05:01:56;74.10;;;34.00;;
32242;SDS011;18731;42.830;24.390;2024-02-04T05:04:21;62.22;;;33.03;;
32242;SDS011;18731;42.830;24.390;2024-02-04T05:06:50;48.35;;;23.25;;
32242;SDS011;18731;42.830;24.390;2024-02-04T05:09:17;52.95;;;26.45;;
32242;SDS011;18731;42.830;24.390;2024-02-04T05:11:42;49.67;;;27.17;;
32242;SDS011;18731;42.830;24.390;2024-02-04T05:14:08;51.10;;;25.33;;
32242;SDS011;18731;42.830;24.390;2024-02-04T05:16:33;88.05;;;38.53;;
32242;SDS011;18731;42.830;24.390;2024-02-04T05:19:00;92.07;;;42.70;;
32242;SDS011;18731;42.830;24.390;2024-02-04T05:21:27;37.70;;;18.92;;
32242;SDS011;18731;42.830;24.390;2024-02-04T05:23:52;49.17;;;23.02;;
32242;SDS011;18731;42.830;24.390;2024-02-04T05:26:18;62.33;;;25.90;;
32242;SDS011;18731;42.830;24.390;2024-02-04T05:28:44;112.03;;;46.22;;
32242;SDS011;18731;42.830;24.390;2024-02-04T05:31:09;137.55;;;52.45;;
32242;SDS011;18731;42.830;24.390;2024-02-04T05:33:35;116.93;;;46.42;;
32242;SDS011;18731;42.830;24.390;2024-02-04T05:36:00;115.85;;;44.45;;
32242;SDS011;18731;42.830;24.390;2024-02-04T05:38:26;111.68;;;42.55;;
32242;SDS011;18731;42.830;24.390;2024-02-04T05:40:51;117.50;;;45.63;;
32242;SDS011;18731;42.830;24.390;2024-02-04T05:43:17;130.05;;;50.58;;
32242;SDS011;18731;42.830;24.390;2024-02-04T05:45:42;107.00;;;41.55;;
32242;SDS011;18731;42.830;24.390;2024-02-04T05:48:08;101.47;;;41.08;;
32242;SDS011;18731;42.830;24.390;2024-02-04T05:50:34;81.25;;;31.55;;
32242;SDS011;18731;42.830;24.390;2024-02-04T05:53:00;118.28;;;46.38;;
32242;SDS011;18731;42.830;24.390;2024-02-04T05:55:26;148.52;;;55.83;;
32242;SDS011;18731;42.830;24.390;2024-02-04T05:57:51;133.60;;;50.20;;
32242;SDS011;18731;42.830;24.390;2024-02-04T06:00:17;117.10;;;47.75;;
32242;SDS011;18731;42.830;24.390;2024-02-04T06:02:43;119.70;;;46.42;;
32242;SDS011;18731;42.830;24.390;2024-02-04T06:05:09;167.82;;;67.72;;
32242;SDS011;18731;42.830;24.390;2024-02-04T06:07:35;120.28;;;48.63;;
32242;SDS011;18731;42.830;24.390;2024-02-04T06:10:00;108.68;;;43.45;;
32242;SDS011;18731;42.830;24.390;2024-02-04T06:12:28;107.07;;;42.80;;
32242;SDS011;18731;42.830;24.390;2024-02-04T06:14:54;100.85;;;42.20;;
32242;SDS011;18731;42.830;24.390;2024-02-04T06:17:20;109.35;;;42.63;;
32242;SDS011;18731;42.830;24.390;2024-02-04T06:19:45;92.07;;;40.15;;
32242;SDS011;18731;42.830;24.390;2024-02-04T06:22:11;97.68;;;40.10;;
32242;SDS011;18731;42.830;24.390;2024-02-04T06:24:37;95.47;;;38.28;;
32242;SDS011;18731;42.830;24.390;2024-02-04T06:27:06;140.73;;;53.00;;
32242;SDS011;18731;42.830;24.390;2024-02-04T06:29:32;167.65;;;60.40;;
32242;SDS011;18731;42.830;24.390;2024-02-04T06:31:58;182.35;;;64.28;;
32242;SDS011;18731;42.830;24.390;2024-02-04T06:34:24;377.90;;;122.53;;
32242;SDS011;18731;42.830;24.390;2024-02-04T06:36:49;437.23;;;145.30;;
32242;SDS011;18731;42.830;24.390;2024-02-04T06:39:15;133.63;;;47.85;;
32242;SDS011;18731;42.830;24.390;2024-02-04T06:41:41;143.20;;;47.90;;
32242;SDS011;18731;42.830;24.390;2024-02-04T06:44:06;243.48;;;69.85;;
32242;SDS011;18731;42.830;24.390;2024-02-04T06:46:32;150.35;;;42.80;;
32242;SDS011;18731;42.830;24.390;2024-02-04T06:48:58;119.07;;;35.22;;
32242;SDS011;18731;42.830;24.390;2024-02-04T06:51:23;38.35;;;15.63;;
32242;SDS011;18731;42.830;24.390;2024-02-04T06:53:49;25.63;;;10.27;;
32242;SDS011;18731;42.830;24.390;2024-02-04T06:56:14;18.50;;;8.10;;
32242;SDS011;18731;42.830;24.390;2024-02-04T06:58:41;16.67;;;7.25;;
32242;SDS011;18731;42.830;24.390;2024-02-04T07:01:07;17.80;;;8.75;;
32242;SDS011;18731;42.830;24.390;2024-02-04T07:03:33;25.75;;;9.52;;
32242;SDS011;18731;42.830;24.390;2024-02-04T07:05:58;11.07;;;4.80;;
32242;SDS011;18731;42.830;24.390;2024-02-04T07:08:24;11.48;;;5.38;;
32242;SDS011;18731;42.830;24.390;2024-02-04T07:10:50;7.93;;;4.80;;
32242;SDS011;18731;42.830;24.390;2024-02-04T07:13:16;6.10;;;3.45;;
32242;SDS011;18731;42.830;24.390;2024-02-04T07:15:42;5.55;;;3.10;;
32242;SDS011;18731;42.830;24.390;2024-02-04T07:18:08;8.05;;;4.88;;
32242;SDS011;18731;42.830;24.390;2024-02-04T07:20:33;8.98;;;4.80;;
32242;SDS011;18731;42.830;24.390;2024-02-04T07:22:59;5.90;;;3.47;;
32242;SDS011;18731;42.830;24.390;2024-02-04T07:25:24;5.10;;;3.00;;
32242;SDS011;18731;42.830;24.390;2024-02-04T07:27:50;5.35;;;3.70;;
32242;SDS011;18731;42.830;24.390;2024-02-04T07:30:16;8.57;;;5.28;;
32242;SDS011;18731;42.830;24.390;2024-02-04T07:32:42;6.00;;;3.90;;
32242;SDS011;18731;42.830;24.390;2024-02-04T07:35:07;8.18;;;4.53;;
32242;SDS011;18731;42.830;24.390;2024-02-04T07:37:34;8.80;;;5.45;;
32242;SDS011;18731;42.830;24.390;2024-02-04T07:40:00;10.73;;;6.07;;
32242;SDS011;18731;42.830;24.390;2024-02-04T07:42:26;8.00;;;4.60;;
32242;SDS011;18731;42.830;24.390;2024-02-04T07:44:54;8.07;;;5.05;;
32242;SDS011;18731;42.830;24.390;2024-02-04T07:47:20;10.40;;;5.03;;
32242;SDS011;18731;42.830;24.390;2024-02-04T07:49:47;5.45;;;3.55;;
32242;SDS011;18731;42.830;24.390;2024-02-04T07:52:15;7.65;;;4.20;;
32242;SDS011;18731;42.830;24.390;2024-02-04T07:54:41;8.30;;;4.78;;
32242;SDS011;18731;42.830;24.390;2024-02-04T07:57:08;12.80;;;6.20;;
32242;SDS011;18731;42.830;24.390;2024-02-04T07:59:37;10.02;;;4.75;;
32242;SDS011;18731;42.830;24.390;2024-02-04T08:02:03;14.35;;;6.63;;
32242;SDS011;18731;42.830;24.390;2024-02-04T08:04:28;10.88;;;6.13;;
32242;SDS011;18731;42.830;24.390;2024-02-04T08:06:54;10.95;;;5.78;;
32242;SDS011;18731;42.830;24.390;2024-02-04T08:09:19;9.57;;;5.10;;
32242;SDS011;18731;42.830;24.390;2024-02-04T08:11:45;8.23;;;4.75;;
32242;SDS011;18731;42.830;24.390;2024-02-04T08:14:12;8.85;;;4.50;;
32242;SDS011;18731;42.830;24.390;2024-02-04T08:16:39;7.65;;;4.82;;
32242;SDS011;18731;42.830;24.390;2024-02-04T08:19:05;7.65;;;3.90;;
32242;SDS011;18731;42.830;24.390;2024-02-04T08:21:31;8.45;;;4.38;;
32242;SDS011;18731;42.830;24.390;2024-02-04T08:23:57;6.85;;;4.05;;
32242;SDS011;18731;42.830;24.390;2024-02-04T08:26:23;6.97;;;4.28;;
32242;SDS011;18731;42.830;24.390;2024-02-04T08:28:49;8.75;;;4.53;;
32242;SDS011;18731;42.830;24.390;2024-02-04T08:31:14;7.88;;;4.38;;
32242;SDS011;18731;42.830;24.390;2024-02-04T08:33:40;9.00;;;5.25;;
32242;SDS011;18731;42.830;24.390;2024-02-04T08:36:06;7.15;;;3.95;;
32242;SDS011;18731;42.830;24.390;2024-02-04T08:38:32;7.63;;;4.65;;
32242;SDS011;18731;42.830;24.390;2024-02-04T08:40:57;8.48;;;4.55;;
32242;SDS011;18731;42.830;24.390;2024-02-04T08:43:23;7.78;;;4.50;;
32242;SDS011;18731;42.830;24.390;2024-02-04T08:45:48;9.88;;;5.22;;
32242;SDS011;18731;42.830;24.390;2024-02-04T08:48:14;8.52;;;4.93;;
32242;SDS011;18731;42.830;24.390;2024-02-04T08:50:39;5.78;;;3.03;;
32242;SDS011;18731;42.830;24.390;2024-02-04T08:53:05;6.70;;;4.10;;
32242;SDS011;18731;42.830;24.390;2024-02-04T08:55:31;6.22;;;3.15;;
32242;SDS011;18731;42.830;24.390;2024-02-04T09:10:47;4.53;;;2.70;;
32242;SDS011;18731;42.830;24.390;2024-02-04T09:13:12;4.20;;;2.42;;
32242;SDS011;18731;42.830;24.390;2024-02-04T09:15:38;2.53;;;2.10;;
32242;SDS011;18731;42.830;24.390;2024-02-04T09:18:04;4.20;;;1.90;;
32242;SDS011;18731;42.830;24.390;2024-02-04T09:20:29;2.67;;;1.80;;
32242;SDS011;18731;42.830;24.390;2024-02-04T09:22:55;2.78;;;1.77;;
32242;SDS011;18731;42.830;24.390;2024-02-04T09:25:20;2.10;;;1.65;;
32242;SDS011;18731;42.830;24.390;2024-02-04T09:27:46;2.78;;;2.08;;
32242;SDS011;18731;42.830;24.390;2024-02-04T09:30:11;4.50;;;1.90;;
32242;SDS011;18731;42.830;24.390;2024-02-04T09:32:37;2.78;;;2.00;;
32242;SDS011;18731;42.830;24.390;2024-02-04T09:35:03;2.78;;;2.22;;
32242;SDS011;18731;42.830;24.390;2024-02-04T09:37:29;4.30;;;2.45;;
32242;SDS011;18731;42.830;24.390;2024-02-04T09:39:54;2.95;;;2.00;;
32242;SDS011;18731;42.830;24.390;2024-02-04T09:42:20;5.70;;;2.00;;
32242;SDS011;18731;42.830;24.390;2024-02-04T09:44:49;3.33;;;1.77;;
32242;SDS011;18731;42.830;24.390;2024-02-04T09:47:15;8.95;;;2.28;;
32242;SDS011;18731;42.830;24.390;2024-02-04T09:49:43;3.13;;;1.80;;
32242;SDS011;18731;42.830;24.390;2024-02-04T09:52:08;5.03;;;2.13;;
32242;SDS011;18731;42.830;24.390;2024-02-04T09:54:37;3.05;;;1.92;;
32242;SDS011;18731;42.830;24.390;2024-02-04T09:57:09;4.28;;;2.17;;
32242;SDS011;18731;42.830;24.390;2024-02-04T09:59:35;4.75;;;1.70;;
32242;SDS011;18731;42.830;24.390;2024-02-04T10:02:01;2.10;;;1.55;;
32242;SDS011;18731;42.830;24.390;2024-02-04T10:04:28;1.80;;;1.60;;
32242;SDS011;18731;42.830;24.390;2024-02-04T10:06:54;2.55;;;1.67;;
32242;SDS011;18731;42.830;24.390;2024-02-04T10:09:20;3.50;;;2.00;;
32242;SDS011;18731;42.830;24.390;2024-02-04T10:11:45;3.50;;;1.92;;
32242;SDS011;18731;42.830;24.390;2024-02-04T10:14:11;2.65;;;1.73;;
32242;SDS011;18731;42.830;24.390;2024-02-04T10:16:37;4.55;;;2.30;;
32242;SDS011;18731;42.830;24.390;2024-02-04T10:19:02;4.00;;;1.92;;
32242;SDS011;18731;42.830;24.390;2024-02-04T10:21:28;3.15;;;1.50;;
32242;SDS011;18731;42.830;24.390;2024-02-04T10:23:53;4.32;;;1.70;;
32242;SDS011;18731;42.830;24.390;2024-02-04T10:26:20;2.35;;;1.50;;
32242;SDS011;18731;42.830;24.390;2024-02-04T10:28:46;3.35;;;1.38;;
32242;SDS011;18731;42.830;24.390;2024-02-04T10:31:13;2.38;;;1.40;;
32242;SDS011;18731;42.830;24.390;2024-02-04T10:33:39;4.45;;;1.80;;
32242;SDS011;18731;42.830;24.390;2024-02-04T10:36:04;2.22;;;1.33;;
32242;SDS011;18731;42.830;24.390;2024-02-04T10:38:33;1.98;;;1.13;;
32242;SDS011;18731;42.830;24.390;2024-02-04T10:40:59;1.42;;;1.00;;
32242;SDS011;18731;42.830;24.390;2024-02-04T10:43:33;2.13;;;1.17;;
32242;SDS011;18731;42.830;24.390;2024-02-04T10:46:32;1.63;;;1.30;;
32242;SDS011;18731;42.830;24.390;2024-02-04T10:51:23;2.95;;;1.08;;
32242;SDS011;18731;42.830;24.390;2024-02-04T10:53:51;2.58;;;1.30;;
32242;SDS011;18731;42.830;24.390;2024-02-04T10:56:30;0.90;;;0.75;;
32242;SDS011;18731;42.830;24.390;2024-02-04T10:58:59;1.05;;;0.70;;
32242;SDS011;18731;42.830;24.390;2024-02-04T11:01:27;1.52;;;1.00;;
32242;SDS011;18731;42.830;24.390;2024-02-04T11:03:54;2.25;;;1.05;;
32242;SDS011;18731;42.830;24.390;2024-02-04T11:06:23;4.65;;;0.98;;
32242;SDS011;18731;42.830;24.390;2024-02-04T11:08:49;0.88;;;0.68;;
32242;SDS011;18731;42.830;24.390;2024-02-04T11:11:20;1.13;;;0.90;;
32242;SDS011;18731;42.830;24.390;2024-02-04T11:13:49;1.00;;;0.70;;
32242;SDS011;18731;42.830;24.390;2024-02-04T11:16:40;1.70;;;0.70;;
32242;SDS011;18731;42.830;24.390;2024-02-04T11:28:02;0.90;;;0.80;;
32242;SDS011;18731;42.830;24.390;2024-02-04T11:30:32;1.30;;;0.75;;
32242;SDS011;18731;42.830;24.390;2024-02-04T11:33:01;2.45;;;0.55;;
32242;SDS011;18731;42.830;24.390;2024-02-04T11:35:30;2.33;;;0.85;;
32242;SDS011;18731;42.830;24.390;2024-02-04T11:37:57;1.35;;;0.90;;
32242;SDS011;18731;42.830;24.390;2024-02-04T11:40:22;3.55;;;0.60;;
32242;SDS011;18731;42.830;24.390;2024-02-04T11:42:51;1.15;;;1.00;;
32242;SDS011;18731;42.830;24.390;2024-02-04T11:45:16;1.75;;;0.70;;
32242;SDS011;18731;42.830;24.390;2024-02-04T11:47:42;2.75;;;1.20;;
32242;SDS011;18731;42.830;24.390;2024-02-04T11:50:08;1.65;;;0.82;;
32242;SDS011;18731;42.830;24.390;2024-02-04T11:52:35;2.85;;;0.85;;
32242;SDS011;18731;42.830;24.390;2024-02-04T11:55:01;0.90;;;0.68;;
32242;SDS011;18731;42.830;24.390;2024-02-04T11:57:27;1.20;;;0.80;;
32242;SDS011;18731;42.830;24.390;2024-02-04T11:59:52;0.50;;;0.50;;
32242;SDS011;18731;42.830;24.390;2024-02-04T12:02:22;1.30;;;0.65;;
32242;SDS011;18731;42.830;24.390;2024-02-04T12:04:48;1.73;;;1.10;;
32242;SDS011;18731;42.830;24.390;2024-02-04T12:07:13;2.20;;;0.75;;
32242;SDS011;18731;42.830;24.390;2024-02-04T12:09:40;1.80;;;0.90;;
32242;SDS011;18731;42.830;24.390;2024-02-04T12:12:06;1.80;;;1.10;;
32242;SDS011;18731;42.830;24.390;2024-02-04T12:14:32;1.13;;;0.90;;
32242;SDS011;18731;42.830;24.390;2024-02-04T12:17:05;0.73;;;0.60;;
32242;SDS011;18731;42.830;24.390;2024-02-04T12:19:33;3.45;;;0.80;;
32242;SDS011;18731;42.830;24.390;2024-02-04T12:21:58;0.60;;;0.60;;
32242;SDS011;18731;42.830;24.390;2024-02-04T12:24:24;1.35;;;0.90;;
32242;SDS011;18731;42.830;24.390;2024-02-04T12:26:50;0.70;;;0.60;;
32242;SDS011;18731;42.830;24.390;2024-02-04T12:29:16;1.92;;;0.90;;
32242;SDS011;18731;42.830;24.390;2024-02-04T12:31:41;0.95;;;0.82;;
32242;SDS011;18731;42.830;24.390;2024-02-04T12:34:10;1.48;;;1.00;;
32242;SDS011;18731;42.830;24.390;2024-02-04T12:36:37;1.83;;;0.85;;
32242;SDS011;18731;42.830;24.390;2024-02-04T12:39:02;1.60;;;1.05;;
32242;SDS011;18731;42.830;24.390;2024-02-04T12:41:34;2.85;;;1.63;;
32242;SDS011;18731;42.830;24.390;2024-02-04T12:44:00;1.30;;;0.90;;
32242;SDS011;18731;42.830;24.390;2024-02-04T12:46:28;2.40;;;1.02;;
32242;SDS011;18731;42.830;24.390;2024-02-04T12:48:57;1.30;;;0.80;;
32242;SDS011;18731;42.830;24.390;2024-02-04T12:51:27;1.27;;;0.80;;
32242;SDS011;18731;42.830;24.390;2024-02-04T12:54:07;0.63;;;0.60;;
32242;SDS011;18731;42.830;24.390;2024-02-04T12:56:41;4.43;;;1.08;;
32242;SDS011;18731;42.830;24.390;2024-02-04T12:59:29;1.33;;;1.00;;
32242;SDS011;18731;42.830;24.390;2024-02-04T13:02:06;1.67;;;0.82;;
32242;SDS011;18731;42.830;24.390;2024-02-04T13:04:33;1.67;;;1.10;;
32242;SDS011;18731;42.830;24.390;2024-02-04T13:07:07;1.20;;;1.10;;
32242;SDS011;18731;42.830;24.390;2024-02-04T13:09:34;0.68;;;0.60;;
32242;SDS011;18731;42.830;24.390;2024-02-04T13:12:04;1.23;;;0.77;;
32242;SDS011;18731;42.830;24.390;2024-02-04T13:14:32;1.52;;;0.98;;
32242;SDS011;18731;42.830;24.390;2024-02-04T13:16:58;3.38;;;1.10;;
32242;SDS011;18731;42.830;24.390;2024-02-04T13:19:23;1.45;;;1.00;;
32242;SDS011;18731;42.830;24.390;2024-02-04T13:21:49;1.60;;;0.82;;
32242;SDS011;18731;42.830;24.390;2024-02-04T13:24:14;3.13;;;1.10;;
32242;SDS011;18731;42.830;24.390;2024-02-04T13:26:40;1.90;;;1.10;;
32242;SDS011;18731;42.830;24.390;2024-02-04T13:29:06;1.58;;;1.15;;
32242;SDS011;18731;42.830;24.390;2024-02-04T13:31:31;1.45;;;1.10;;
32242;SDS011;18731;42.830;24.390;2024-02-04T13:33:57;1.15;;;0.90;;
32242;SDS011;18731;42.830;24.390;2024-02-04T13:36:23;2.33;;;1.25;;
32242;SDS011;18731;42.830;24.390;2024-02-04T13:38:49;1.40;;;1.02;;
32242;SDS011;18731;42.830;24.390;2024-02-04T13:41:14;1.85;;;1.15;;
32242;SDS011;18731;42.830;24.390;2024-02-04T13:43:40;1.75;;;1.00;;
32242;SDS011;18731;42.830;24.390;2024-02-04T13:46:06;1.35;;;0.80;;
32242;SDS011;18731;42.830;24.390;2024-02-04T13:48:32;1.67;;;1.13;;
32242;SDS011;18731;42.830;24.390;2024-02-04T13:50:57;2.55;;;1.25;;
32242;SDS011;18731;42.830;24.390;2024-02-04T13:53:23;3.05;;;1.23;;
32242;SDS011;18731;42.830;24.390;2024-02-04T13:55:49;2.03;;;1.20;;
32242;SDS011;18731;42.830;24.390;2024-02-04T13:58:14;1.52;;;1.10;;
32242;SDS011;18731;42.830;24.390;2024-02-04T14:00:40;2.17;;;1.25;;
32242;SDS011;18731;42.830;24.390;2024-02-04T14:03:06;2.15;;;0.98;;
32242;SDS011;18731;42.830;24.390;2024-02-04T14:05:32;2.97;;;1.50;;
32242;SDS011;18731;42.830;24.390;2024-02-04T14:07:58;2.53;;;0.82;;
32242;SDS011;18731;42.830;24.390;2024-02-04T14:10:23;0.80;;;0.75;;
32242;SDS011;18731;42.830;24.390;2024-02-04T14:12:49;1.35;;;0.93;;
32242;SDS011;18731;42.830;24.390;2024-02-04T14:15:15;1.95;;;1.48;;
32242;SDS011;18731;42.830;24.390;2024-02-04T14:17:41;1.92;;;1.30;;
32242;SDS011;18731;42.830;24.390;2024-02-04T14:20:07;2.45;;;1.33;;
32242;SDS011;18731;42.830;24.390;2024-02-04T14:22:34;1.35;;;1.10;;
32242;SDS011;18731;42.830;24.390;2024-02-04T14:25:00;2.88;;;1.60;;
32242;SDS011;18731;42.830;24.390;2024-02-04T14:27:25;2.13;;;1.80;;
32242;SDS011;18731;42.830;24.390;2024-02-04T14:29:51;2.20;;;0.88;;
32242;SDS011;18731;42.830;24.390;2024-02-04T14:32:16;1.40;;;0.80;;
32242;SDS011;18731;42.830;24.390;2024-02-04T14:34:43;4.38;;;1.20;;
32242;SDS011;18731;42.830;24.390;2024-02-04T14:37:09;2.70;;;1.58;;
32242;SDS011;18731;42.830;24.390;2024-02-04T14:39:35;1.15;;;0.90;;
32242;SDS011;18731;42.830;24.390;2024-02-04T14:42:01;2.22;;;1.38;;
32242;SDS011;18731;42.830;24.390;2024-02-04T14:44:27;1.48;;;1.10;;
32242;SDS011;18731;42.830;24.390;2024-02-04T14:46:52;0.77;;;0.70;;
32242;SDS011;18731;42.830;24.390;2024-02-04T14:49:18;1.63;;;1.25;;